sensor_id;sensor_type;location;lat;lon;timestamp;pressure;altitude;pressure_sealevel;temperature;humidity
8627;BME280;4351;51.422;6.794;2023-07-31T00:00:00;103465.75;;;16.71;62.80
8627;BME280;4351;51.422;6.794;2023-07-31T00:02:30;103697.81;;;16.84;59.87
8627;BME280;4351;51.422;6.794;2023-07-31T00:05:00;103540.84;;;16.78;62.88
8627;BME280;4351;51.422;6.794;2023-07-31T00:07:28;103465.38;;;16.78;65.39
8627;BME280;4351;51.422;6.794;2023-07-31T00:09:56;103439.91;;;16.80;67.98
8627;BME280;4351;51.422;6.794;2023-07-31T00:12:24;103362.84;;;16.76;70.29
8627;BME280;4351;51.422;6.794;2023-07-31T00:14:52;103368.44;;;16.73;72.03
8627;BME280;4351;51.422;6.794;2023-07-31T00:17:20;103308.19;;;16.79;75.30
8627;BME280;4351;51.422;6.794;2023-07-31T00:19:47;103238.56;;;16.72;78.38
8627;BME280;4351;51.422;6.794;2023-07-31T00:22:18;103186.94;;;16.69;85.34
8627;BME280;4351;51.422;6.794;2023-07-31T00:24:46;103143.09;;;16.73;84.12
8627;BME280;4351;51.422;6.794;2023-07-31T00:27:14;103082.38;;;16.89;86.12
8627;BME280;4351;51.422;6.794;2023-07-31T00:29:43;102923.53;;;16.67;95.33
8627;BME280;4351;51.422;6.794;2023-07-31T00:32:10;102852.97;;;16.97;98.39
8627;BME280;4351;51.422;6.794;2023-07-31T00:34:39;102714.19;;;16.92;100.00
8627;BME280;4351;51.422;6.794;2023-07-31T00:37:08;102594.97;;;16.80;100.00
8627;BME280;4351;51.422;6.794;2023-07-31T00:39:37;102527.53;;;16.83;100.00
8627;BME280;4351;51.422;6.794;2023-07-31T00:42:05;102325.28;;;16.78;100.00
8627;BME280;4351;51.422;6.794;2023-07-31T00:44:33;102105.53;;;16.77;100.00
8627;BME280;4351;51.422;6.794;2023-07-31T00:47:01;102064.97;;;16.72;100.00
8627;BME280;4351;51.422;6.794;2023-07-31T00:49:29;102044.41;;;16.81;100.00
8627;BME280;4351;51.422;6.794;2023-07-31T00:51:57;101954.06;;;16.87;100.00
8627;BME280;4351;51.422;6.794;2023-07-31T00:54:25;101834.91;;;16.89;100.00
8627;BME280;4351;51.422;6.794;2023-07-31T00:56:54;101651.28;;;16.79;100.00
8627;BME280;4351;51.422;6.794;2023-07-31T00:59:23;101543.81;;;16.83;100.00
8627;BME280;4351;51.422;6.794;2023-07-31T01:01:50;101465.09;;;16.92;100.00
8627;BME280;4351;51.422;6.794;2023-07-31T01:04:20;101222.72;;;16.90;100.00
8627;BME280;4351;51.422;6.794;2023-07-31T01:06:56;101065.44;;;16.81;100.00
8627;BME280;4351;51.422;6.794;2023-07-31T01:09:34;101026.69;;;16.77;100.00
8627;BME280;4351;51.422;6.794;2023-07-31T01:12:07;101022.00;;;16.67;100.00
8627;BME280;4351;51.422;6.794;2023-07-31T01:14:36;101007.50;;;16.78;100.00
8627;BME280;4351;51.422;6.794;2023-07-31T01:17:04;100931.47;;;16.87;100.00
8627;BME280;4351;51.422;6.794;2023-07-31T01:19:32;100874.88;;;16.79;100.00
8627;BME280;4351;51.422;6.794;2023-07-31T01:22:21;100824.88;;;16.80;100.00
8627;BME280;4351;51.422;6.794;2023-07-31T01:24:58;100816.16;;;16.86;100.00
8627;BME280;4351;51.422;6.794;2023-07-31T01:27:35;100804.53;;;16.84;100.00
8627;BME280;4351;51.422;6.794;2023-07-31T01:30:10;100777.31;;;16.84;100.00
8627;BME280;4351;51.422;6.794;2023-07-31T01:32:43;100743.53;;;16.97;100.00
8627;BME280;4351;51.422;6.794;2023-07-31T01:35:11;100997.97;;;16.84;100.00
8627;BME280;4351;51.422;6.794;2023-07-31T01:37:39;101010.56;;;16.85;100.00
8627;BME280;4351;51.422;6.794;2023-07-31T01:40:08;100974.78;;;16.90;100.00
8627;BME280;4351;51.422;6.794;2023-07-31T01:42:41;100963.28;;;16.86;100.00
8627;BME280;4351;51.422;6.794;2023-07-31T01:45:09;100890.84;;;16.84;100.00
8627;BME280;4351;51.422;6.794;2023-07-31T01:47:37;100865.84;;;16.78;100.00
8627;BME280;4351;51.422;6.794;2023-07-31T01:50:06;100840.94;;;16.83;100.00
8627;BME280;4351;51.422;6.794;2023-07-31T01:52:33;100853.56;;;16.84;100.00
8627;BME280;4351;51.422;6.794;2023-07-31T01:55:01;100827.50;;;16.92;100.00
8627;BME280;4351;51.422;6.794;2023-07-31T01:57:32;100796.81;;;16.89;100.00
8627;BME280;4351;51.422;6.794;2023-07-31T02:00:01;100745.19;;;16.88;100.00
8627;BME280;4351;51.422;6.794;2023-07-31T02:02:37;100700.41;;;17.02;100.00
8627;BME280;4351;51.422;6.794;2023-07-31T02:05:06;100648.47;;;17.04;100.00
8627;BME280;4351;51.422;6.794;2023-07-31T02:07:34;100648.56;;;16.82;100.00
8627;BME280;4351;51.422;6.794;2023-07-31T02:10:01;100667.47;;;16.84;100.00
8627;BME280;4351;51.422;6.794;2023-07-31T02:12:29;100668.91;;;16.78;100.00
8627;BME280;4351;51.422;6.794;2023-07-31T02:14:58;100664.03;;;16.82;100.00
8627;BME280;4351;51.422;6.794;2023-07-31T02:17:27;100658.91;;;16.88;100.00
8627;BME280;4351;51.422;6.794;2023-07-31T02:19:56;100656.59;;;16.94;100.00
8627;BME280;4351;51.422;6.794;2023-07-31T02:22:24;100636.09;;;16.89;100.00
8627;BME280;4351;51.422;6.794;2023-07-31T02:24:52;100598.56;;;17.03;100.00
8627;BME280;4351;51.422;6.794;2023-07-31T02:27:21;100545.34;;;16.89;100.00
8627;BME280;4351;51.422;6.794;2023-07-31T02:29:54;100527.13;;;16.89;100.00
8627;BME280;4351;51.422;6.794;2023-07-31T02:32:22;100538.16;;;16.78;100.00
8627;BME280;4351;51.422;6.794;2023-07-31T02:34:54;100572.69;;;16.77;100.00
8627;BME280;4351;51.422;6.794;2023-07-31T02:37:23;100535.00;;;16.83;100.00
8627;BME280;4351;51.422;6.794;2023-07-31T02:39:51;100536.16;;;16.80;100.00
8627;BME280;4351;51.422;6.794;2023-07-31T02:42:19;100529.59;;;16.93;100.00
8627;BME280;4351;51.422;6.794;2023-07-31T02:44:47;100512.66;;;16.89;100.00
8627;BME280;4351;51.422;6.794;2023-07-31T02:47:15;100508.78;;;16.92;100.00
8627;BME280;4351;51.422;6.794;2023-07-31T02:49:44;100475.66;;;16.96;100.00
8627;BME280;4351;51.422;6.794;2023-07-31T02:52:13;100479.13;;;17.08;100.00
8627;BME280;4351;51.422;6.794;2023-07-31T02:54:40;100477.69;;;17.04;100.00
8627;BME280;4351;51.422;6.794;2023-07-31T02:57:08;100429.94;;;17.00;100.00
8627;BME280;4351;51.422;6.794;2023-07-31T02:59:36;100422.75;;;16.99;100.00
8627;BME280;4351;51.422;6.794;2023-07-31T03:02:04;100433.97;;;16.96;100.00
8627;BME280;4351;51.422;6.794;2023-07-31T03:04:32;100438.16;;;17.20;100.00
8627;BME280;4351;51.422;6.794;2023-07-31T03:06:59;100455.50;;;17.19;100.00
8627;BME280;4351;51.422;6.794;2023-07-31T03:09:29;100455.19;;;17.02;100.00
8627;BME280;4351;51.422;6.794;2023-07-31T03:11:56;100525.88;;;17.04;100.00
8627;BME280;4351;51.422;6.794;2023-07-31T03:14:25;100527.88;;;17.01;100.00
8627;BME280;4351;51.422;6.794;2023-07-31T03:16:53;100563.72;;;16.97;100.00
8627;BME280;4351;51.422;6.794;2023-07-31T03:19:22;100576.91;;;17.01;100.00
8627;BME280;4351;51.422;6.794;2023-07-31T03:21:49;100581.19;;;16.94;100.00
8627;BME280;4351;51.422;6.794;2023-07-31T03:24:17;100610.28;;;16.94;100.00
8627;BME280;4351;51.422;6.794;2023-07-31T03:26:47;100618.38;;;17.05;100.00
8627;BME280;4351;51.422;6.794;2023-07-31T03:29:15;100602.50;;;17.20;100.00
8627;BME280;4351;51.422;6.794;2023-07-31T03:31:43;100585.44;;;17.18;100.00
8627;BME280;4351;51.422;6.794;2023-07-31T03:34:11;100589.47;;;17.24;100.00
8627;BME280;4351;51.422;6.794;2023-07-31T03:36:39;100563.53;;;17.40;100.00
8627;BME280;4351;51.422;6.794;2023-07-31T03:39:07;100548.31;;;17.37;100.00
8627;BME280;4351;51.422;6.794;2023-07-31T03:41:35;100562.22;;;17.24;100.00
8627;BME280;4351;51.422;6.794;2023-07-31T03:44:04;100582.75;;;17.28;100.00
8627;BME280;4351;51.422;6.794;2023-07-31T03:46:32;100579.31;;;17.26;100.00
8627;BME280;4351;51.422;6.794;2023-07-31T03:49:01;100554.88;;;17.24;100.00
8627;BME280;4351;51.422;6.794;2023-07-31T03:51:30;100555.75;;;17.25;100.00
8627;BME280;4351;51.422;6.794;2023-07-31T03:53:58;100543.56;;;17.29;100.00
8627;BME280;4351;51.422;6.794;2023-07-31T03:56:25;100540.56;;;17.32;100.00
8627;BME280;4351;51.422;6.794;2023-07-31T03:58:53;100539.28;;;17.37;100.00
8627;BME280;4351;51.422;6.794;2023-07-31T04:01:22;100563.06;;;17.24;100.00
8627;BME280;4351;51.422;6.794;2023-07-31T04:03:50;100564.34;;;17.20;100.00
8627;BME280;4351;51.422;6.794;2023-07-31T04:06:18;100571.53;;;17.31;100.00
8627;BME280;4351;51.422;6.794;2023-07-31T04:08:45;100615.59;;;17.37;100.00
8627;BME280;4351;51.422;6.794;2023-07-31T04:11:13;100632.38;;;17.32;100.00
8627;BME280;4351;51.422;6.794;2023-07-31T04:13:42;100625.53;;;17.48;100.00
8627;BME280;4351;51.422;6.794;2023-07-31T04:16:10;100609.72;;;17.41;100.00
8627;BME280;4351;51.422;6.794;2023-07-31T04:18:39;100577.31;;;17.58;100.00
8627;BME280;4351;51.422;6.794;2023-07-31T04:21:07;100545.13;;;17.62;100.00
8627;BME280;4351;51.422;6.794;2023-07-31T04:23:36;100543.44;;;17.61;100.00
8627;BME280;4351;51.422;6.794;2023-07-31T04:26:04;100559.63;;;17.42;100.00
8627;BME280;4351;51.422;6.794;2023-07-31T04:28:32;100589.06;;;17.39;100.00
8627;BME280;4351;51.422;6.794;2023-07-31T04:31:00;100584.75;;;17.56;100.00
8627;BME280;4351;51.422;6.794;2023-07-31T04:33:27;100593.38;;;17.51;100.00
8627;BME280;4351;51.422;6.794;2023-07-31T04:35:58;100596.94;;;17.62;100.00
8627;BME280;4351;51.422;6.794;2023-07-31T04:38:25;100594.97;;;17.44;100.00
8627;BME280;4351;51.422;6.794;2023-07-31T04:40:53;100626.06;;;17.31;100.00
8627;BME280;4351;51.422;6.794;2023-07-31T04:43:21;100659.22;;;17.37;100.00
8627;BME280;4351;51.422;6.794;2023-07-31T04:45:49;100687.19;;;17.39;100.00
8627;BME280;4351;51.422;6.794;2023-07-31T04:48:17;100712.72;;;17.38;100.00
8627;BME280;4351;51.422;6.794;2023-07-31T04:50:45;100707.28;;;17.38;100.00
8627;BME280;4351;51.422;6.794;2023-07-31T04:53:14;100733.41;;;17.40;100.00
8627;BME280;4351;51.422;6.794;2023-07-31T04:55:42;100731.69;;;17.39;100.00
8627;BME280;4351;51.422;6.794;2023-07-31T04:58:10;100755.63;;;17.35;100.00
8627;BME280;4351;51.422;6.794;2023-07-31T05:00:37;100787.09;;;17.40;100.00
8627;BME280;4351;51.422;6.794;2023-07-31T05:03:05;100832.16;;;17.44;100.00
8627;BME280;4351;51.422;6.794;2023-07-31T05:05:34;100828.78;;;17.62;100.00
8627;BME280;4351;51.422;6.794;2023-07-31T05:08:02;100832.28;;;17.42;100.00
8627;BME280;4351;51.422;6.794;2023-07-31T05:10:31;100846.56;;;17.56;100.00
8627;BME280;4351;51.422;6.794;2023-07-31T05:12:59;100855.13;;;17.51;100.00
8627;BME280;4351;51.422;6.794;2023-07-31T05:15:27;100856.25;;;17.39;100.00
8627;BME280;4351;51.422;6.794;2023-07-31T05:17:55;100852.09;;;17.44;100.00
8627;BME280;4351;51.422;6.794;2023-07-31T05:20:23;100843.47;;;17.39;100.00
8627;BME280;4351;51.422;6.794;2023-07-31T05:22:51;100845.06;;;17.42;100.00
8627;BME280;4351;51.422;6.794;2023-07-31T05:25:19;100896.16;;;17.40;100.00
8627;BME280;4351;51.422;6.794;2023-07-31T05:27:48;100934.84;;;17.33;100.00
8627;BME280;4351;51.422;6.794;2023-07-31T05:30:16;100964.38;;;17.28;100.00
8627;BME280;4351;51.422;6.794;2023-07-31T05:32:44;100968.56;;;17.32;100.00
8627;BME280;4351;51.422;6.794;2023-07-31T05:35:12;100982.44;;;17.29;100.00
8627;BME280;4351;51.422;6.794;2023-07-31T05:37:40;100995.16;;;17.40;100.00
8627;BME280;4351;51.422;6.794;2023-07-31T05:40:09;100982.59;;;17.49;100.00
8627;BME280;4351;51.422;6.794;2023-07-31T05:42:36;100945.22;;;17.40;100.00
8627;BME280;4351;51.422;6.794;2023-07-31T05:45:07;100934.84;;;17.55;100.00
8627;BME280;4351;51.422;6.794;2023-07-31T05:47:35;100934.03;;;17.43;100.00
8627;BME280;4351;51.422;6.794;2023-07-31T05:50:04;100941.50;;;17.41;100.00
8627;BME280;4351;51.422;6.794;2023-07-31T05:52:31;100954.13;;;17.42;100.00
8627;BME280;4351;51.422;6.794;2023-07-31T05:54:59;100932.03;;;17.45;100.00
8627;BME280;4351;51.422;6.794;2023-07-31T05:57:27;100892.34;;;17.52;100.00
8627;BME280;4351;51.422;6.794;2023-07-31T05:59:55;100863.31;;;17.51;100.00
8627;BME280;4351;51.422;6.794;2023-07-31T06:02:25;100835.34;;;17.49;100.00
8627;BME280;4351;51.422;6.794;2023-07-31T06:04:53;100843.88;;;17.66;100.00
8627;BME280;4351;51.422;6.794;2023-07-31T06:07:21;100807.81;;;17.62;100.00
8627;BME280;4351;51.422;6.794;2023-07-31T06:09:49;100813.38;;;17.51;100.00
8627;BME280;4351;51.422;6.794;2023-07-31T06:12:17;100857.88;;;17.51;100.00
8627;BME280;4351;51.422;6.794;2023-07-31T06:14:45;100869.50;;;17.53;100.00
8627;BME280;4351;51.422;6.794;2023-07-31T06:17:13;100887.31;;;17.57;100.00
8627;BME280;4351;51.422;6.794;2023-07-31T06:19:42;100877.84;;;17.52;100.00
8627;BME280;4351;51.422;6.794;2023-07-31T06:22:10;100916.16;;;17.50;100.00
8627;BME280;4351;51.422;6.794;2023-07-31T06:24:40;100936.56;;;17.56;100.00
8627;BME280;4351;51.422;6.794;2023-07-31T06:27:08;100968.94;;;17.49;100.00
8627;BME280;4351;51.422;6.794;2023-07-31T06:29:36;100989.09;;;17.37;100.00
8627;BME280;4351;51.422;6.794;2023-07-31T06:32:05;101019.28;;;17.45;100.00
8627;BME280;4351;51.422;6.794;2023-07-31T06:34:33;101041.41;;;17.42;100.00
8627;BME280;4351;51.422;6.794;2023-07-31T06:37:03;101080.06;;;17.35;100.00
8627;BME280;4351;51.422;6.794;2023-07-31T06:39:31;101120.47;;;17.42;100.00
8627;BME280;4351;51.422;6.794;2023-07-31T06:41:59;101139.19;;;17.35;100.00
8627;BME280;4351;51.422;6.794;2023-07-31T06:44:27;101183.06;;;17.20;100.00
8627;BME280;4351;51.422;6.794;2023-07-31T06:46:55;101234.50;;;17.14;100.00
8627;BME280;4351;51.422;6.794;2023-07-31T06:49:23;101271.91;;;17.23;100.00
8627;BME280;4351;51.422;6.794;2023-07-31T06:51:50;101306.13;;;17.27;100.00
8627;BME280;4351;51.422;6.794;2023-07-31T06:54:19;101373.31;;;17.28;100.00
8627;BME280;4351;51.422;6.794;2023-07-31T06:56:47;101405.28;;;17.26;100.00
8627;BME280;4351;51.422;6.794;2023-07-31T06:59:16;101422.59;;;17.25;100.00
8627;BME280;4351;51.422;6.794;2023-07-31T07:01:43;101442.31;;;17.17;100.00
8627;BME280;4351;51.422;6.794;2023-07-31T07:04:11;101508.00;;;17.26;100.00
8627;BME280;4351;51.422;6.794;2023-07-31T07:06:39;101513.81;;;17.21;100.00
8627;BME280;4351;51.422;6.794;2023-07-31T07:09:08;101523.25;;;17.28;100.00
8627;BME280;4351;51.422;6.794;2023-07-31T07:11:37;101531.50;;;17.15;100.00
8627;BME280;4351;51.422;6.794;2023-07-31T07:14:05;101589.06;;;17.10;100.00
8627;BME280;4351;51.422;6.794;2023-07-31T07:16:33;101761.34;;;17.16;100.00
8627;BME280;4351;51.422;6.794;2023-07-31T07:19:00;101838.84;;;17.11;100.00
8627;BME280;4351;51.422;6.794;2023-07-31T07:21:30;102114.69;;;17.18;100.00
8627;BME280;4351;51.422;6.794;2023-07-31T07:23:58;102322.78;;;17.19;100.00
8627;BME280;4351;51.422;6.794;2023-07-31T07:26:26;102391.25;;;17.14;100.00
8627;BME280;4351;51.422;6.794;2023-07-31T07:28:55;102456.75;;;16.98;100.00
8627;BME280;4351;51.422;6.794;2023-07-31T07:31:27;102599.53;;;16.95;97.49
8627;BME280;4351;51.422;6.794;2023-07-31T07:33:55;102753.59;;;17.03;91.14
8627;BME280;4351;51.422;6.794;2023-07-31T07:36:23;102829.06;;;17.02;85.85
8627;BME280;4351;51.422;6.794;2023-07-31T07:38:51;102924.84;;;16.96;78.30
8627;BME280;4351;51.422;6.794;2023-07-31T07:41:19;102992.34;;;17.08;75.87
8627;BME280;4351;51.422;6.794;2023-07-31T07:43:47;103043.97;;;16.94;73.63
8627;BME280;4351;51.422;6.794;2023-07-31T07:46:16;103208.13;;;17.00;71.77
8627;BME280;4351;51.422;6.794;2023-07-31T07:48:44;103285.66;;;16.95;70.36
8627;BME280;4351;51.422;6.794;2023-07-31T07:51:12;103187.91;;;17.05;69.50
8627;BME280;4351;51.422;6.794;2023-07-31T07:53:41;103068.50;;;16.94;71.60
8627;BME280;4351;51.422;6.794;2023-07-31T07:56:09;102989.44;;;16.94;77.03
8627;BME280;4351;51.422;6.794;2023-07-31T07:58:38;103105.06;;;17.07;75.50
8627;BME280;4351;51.422;6.794;2023-07-31T08:01:06;103099.00;;;17.02;77.52
8627;BME280;4351;51.422;6.794;2023-07-31T08:03:36;103175.41;;;17.00;75.39
8627;BME280;4351;51.422;6.794;2023-07-31T08:06:05;103260.16;;;16.96;71.37
8627;BME280;4351;51.422;6.794;2023-07-31T08:08:35;103252.94;;;16.95;68.14
8627;BME280;4351;51.422;6.794;2023-07-31T08:11:04;103033.06;;;16.94;76.19
8627;BME280;4351;51.422;6.794;2023-07-31T08:13:34;102992.16;;;16.94;84.72
8627;BME280;4351;51.422;6.794;2023-07-31T08:16:03;102971.88;;;16.99;84.56
8627;BME280;4351;51.422;6.794;2023-07-31T08:18:32;102880.78;;;17.04;84.92
8627;BME280;4351;51.422;6.794;2023-07-31T08:21:03;102607.97;;;16.91;100.00
8627;BME280;4351;51.422;6.794;2023-07-31T08:23:31;102461.69;;;16.91;100.00
8627;BME280;4351;51.422;6.794;2023-07-31T08:26:00;102365.00;;;16.82;100.00
8627;BME280;4351;51.422;6.794;2023-07-31T08:28:28;102317.13;;;16.78;100.00
8627;BME280;4351;51.422;6.794;2023-07-31T08:30:57;102318.56;;;16.84;100.00
8627;BME280;4351;51.422;6.794;2023-07-31T08:33:26;102090.84;;;17.07;100.00
8627;BME280;4351;51.422;6.794;2023-07-31T08:35:54;101784.25;;;16.87;100.00
8627;BME280;4351;51.422;6.794;2023-07-31T08:38:25;101730.16;;;16.94;100.00
8627;BME280;4351;51.422;6.794;2023-07-31T08:40:54;101633.81;;;16.95;100.00
8627;BME280;4351;51.422;6.794;2023-07-31T08:43:25;101561.00;;;16.97;100.00
8627;BME280;4351;51.422;6.794;2023-07-31T08:45:56;101449.22;;;16.85;100.00
8627;BME280;4351;51.422;6.794;2023-07-31T08:48:25;101446.69;;;16.71;100.00
8627;BME280;4351;51.422;6.794;2023-07-31T08:50:54;101504.78;;;16.83;100.00
8627;BME280;4351;51.422;6.794;2023-07-31T08:53:24;101609.66;;;16.77;100.00
8627;BME280;4351;51.422;6.794;2023-07-31T08:55:53;101776.41;;;16.82;100.00
8627;BME280;4351;51.422;6.794;2023-07-31T08:58:23;101785.13;;;16.74;100.00
8627;BME280;4351;51.422;6.794;2023-07-31T09:00:52;101837.63;;;16.76;100.00
8627;BME280;4351;51.422;6.794;2023-07-31T09:03:25;101876.91;;;16.74;100.00
8627;BME280;4351;51.422;6.794;2023-07-31T09:05:56;101784.03;;;16.77;100.00
8627;BME280;4351;51.422;6.794;2023-07-31T09:08:30;101757.53;;;16.79;100.00
8627;BME280;4351;51.422;6.794;2023-07-31T09:10:59;101747.41;;;16.81;100.00
8627;BME280;4351;51.422;6.794;2023-07-31T09:13:29;101783.59;;;16.83;100.00
8627;BME280;4351;51.422;6.794;2023-07-31T09:15:58;101821.53;;;16.86;100.00
8627;BME280;4351;51.422;6.794;2023-07-31T09:18:27;101824.69;;;16.80;100.00
8627;BME280;4351;51.422;6.794;2023-07-31T09:21:03;101866.22;;;16.84;100.00
8627;BME280;4351;51.422;6.794;2023-07-31T09:23:42;101970.41;;;16.87;100.00
8627;BME280;4351;51.422;6.794;2023-07-31T09:26:29;102095.34;;;16.94;100.00
8627;BME280;4351;51.422;6.794;2023-07-31T09:28:57;102243.13;;;16.99;100.00
8627;BME280;4351;51.422;6.794;2023-07-31T09:31:33;102341.66;;;16.93;100.00
8627;BME280;4351;51.422;6.794;2023-07-31T09:34:02;102407.94;;;16.93;95.83
8627;BME280;4351;51.422;6.794;2023-07-31T09:36:32;102526.63;;;16.99;86.63
8627;BME280;4351;51.422;6.794;2023-07-31T09:39:09;102575.81;;;16.81;84.87
8627;BME280;4351;51.422;6.794;2023-07-31T09:41:38;102662.25;;;16.95;79.13
8627;BME280;4351;51.422;6.794;2023-07-31T09:44:07;102742.50;;;16.89;74.38
8627;BME280;4351;51.422;6.794;2023-07-31T09:46:35;102822.09;;;16.96;69.23
8627;BME280;4351;51.422;6.794;2023-07-31T09:49:06;102818.31;;;16.99;69.97
8627;BME280;4351;51.422;6.794;2023-07-31T09:51:36;102818.19;;;17.18;65.61
8627;BME280;4351;51.422;6.794;2023-07-31T09:54:13;102751.50;;;17.08;81.26
8627;BME280;4351;51.422;6.794;2023-07-31T09:56:43;102613.75;;;17.00;74.70
8627;BME280;4351;51.422;6.794;2023-07-31T09:59:12;102778.06;;;17.04;66.74
8627;BME280;4351;51.422;6.794;2023-07-31T10:01:41;102785.44;;;17.02;68.58
8627;BME280;4351;51.422;6.794;2023-07-31T10:04:10;102811.31;;;17.11;68.86
8627;BME280;4351;51.422;6.794;2023-07-31T10:06:40;102862.63;;;17.20;67.11
8627;BME280;4351;51.422;6.794;2023-07-31T10:09:10;102839.97;;;17.02;70.06
8627;BME280;4351;51.422;6.794;2023-07-31T10:11:43;103011.75;;;17.02;66.58
8627;BME280;4351;51.422;6.794;2023-07-31T10:14:18;103223.63;;;17.00;61.92
8627;BME280;4351;51.422;6.794;2023-07-31T10:16:47;103380.19;;;17.15;57.51
8627;BME280;4351;51.422;6.794;2023-07-31T10:19:16;103266.72;;;17.11;57.96
8627;BME280;4351;51.422;6.794;2023-07-31T10:21:46;103353.41;;;17.04;59.76
8627;BME280;4351;51.422;6.794;2023-07-31T10:24:19;103445.00;;;17.08;60.04
8627;BME280;4351;51.422;6.794;2023-07-31T10:26:49;103506.72;;;17.11;58.16
8627;BME280;4351;51.422;6.794;2023-07-31T10:29:19;103465.19;;;17.04;59.63
8627;BME280;4351;51.422;6.794;2023-07-31T10:31:51;103517.66;;;17.09;61.25
8627;BME280;4351;51.422;6.794;2023-07-31T10:34:19;103591.16;;;17.14;60.76
8627;BME280;4351;51.422;6.794;2023-07-31T10:36:47;103677.03;;;17.26;61.31
8627;BME280;4351;51.422;6.794;2023-07-31T10:39:35;103614.34;;;17.45;63.27
8627;BME280;4351;51.422;6.794;2023-07-31T10:42:13;103475.97;;;17.28;69.41
8627;BME280;4351;51.422;6.794;2023-07-31T10:44:43;103462.72;;;17.40;72.44
8627;BME280;4351;51.422;6.794;2023-07-31T10:47:14;103324.22;;;17.45;78.00
8627;BME280;4351;51.422;6.794;2023-07-31T10:49:45;103102.25;;;17.46;86.27
8627;BME280;4351;51.422;6.794;2023-07-31T10:52:13;103117.25;;;17.55;88.57
8627;BME280;4351;51.422;6.794;2023-07-31T10:54:41;102983.34;;;17.58;90.41
8627;BME280;4351;51.422;6.794;2023-07-31T10:57:20;102878.88;;;17.56;100.00
8627;BME280;4351;51.422;6.794;2023-07-31T10:59:50;102728.63;;;17.43;100.00
8627;BME280;4351;51.422;6.794;2023-07-31T11:02:25;102745.53;;;17.50;100.00
8627;BME280;4351;51.422;6.794;2023-07-31T11:05:06;102693.78;;;17.48;98.15
8627;BME280;4351;51.422;6.794;2023-07-31T11:07:47;102639.06;;;17.66;99.41
8627;BME280;4351;51.422;6.794;2023-07-31T11:10:19;102442.78;;;17.63;100.00
8627;BME280;4351;51.422;6.794;2023-07-31T11:12:49;102351.44;;;17.68;100.00
8627;BME280;4351;51.422;6.794;2023-07-31T11:15:17;102146.03;;;17.66;100.00
8627;BME280;4351;51.422;6.794;2023-07-31T11:17:45;101993.66;;;17.73;100.00
8627;BME280;4351;51.422;6.794;2023-07-31T11:20:13;101797.75;;;17.78;100.00
8627;BME280;4351;51.422;6.794;2023-07-31T11:22:41;101656.47;;;17.82;100.00
8627;BME280;4351;51.422;6.794;2023-07-31T11:25:09;101485.94;;;17.88;100.00
8627;BME280;4351;51.422;6.794;2023-07-31T11:27:38;101260.94;;;17.80;100.00
8627;BME280;4351;51.422;6.794;2023-07-31T11:30:09;101221.47;;;17.85;100.00
8627;BME280;4351;51.422;6.794;2023-07-31T11:32:37;101115.31;;;17.81;100.00
8627;BME280;4351;51.422;6.794;2023-07-31T11:35:05;101056.44;;;17.79;100.00
8627;BME280;4351;51.422;6.794;2023-07-31T11:37:41;101007.69;;;17.96;100.00
8627;BME280;4351;51.422;6.794;2023-07-31T11:40:10;100791.28;;;18.05;100.00
8627;BME280;4351;51.422;6.794;2023-07-31T11:42:38;100637.16;;;17.99;100.00
8627;BME280;4351;51.422;6.794;2023-07-31T11:45:08;100525.28;;;17.99;100.00
8627;BME280;4351;51.422;6.794;2023-07-31T11:47:37;100847.28;;;17.99;100.00
8627;BME280;4351;51.422;6.794;2023-07-31T11:50:07;100850.88;;;18.00;100.00
8627;BME280;4351;51.422;6.794;2023-07-31T11:52:40;100865.94;;;17.94;100.00
8627;BME280;4351;51.422;6.794;2023-07-31T11:55:10;100925.09;;;17.93;100.00
8627;BME280;4351;51.422;6.794;2023-07-31T11:57:43;101000.38;;;17.96;100.00
8627;BME280;4351;51.422;6.794;2023-07-31T12:00:14;101010.09;;;17.89;100.00
8627;BME280;4351;51.422;6.794;2023-07-31T12:02:42;101044.84;;;17.87;100.00
8627;BME280;4351;51.422;6.794;2023-07-31T12:05:11;101133.81;;;17.78;100.00
8627;BME280;4351;51.422;6.794;2023-07-31T12:07:47;101214.69;;;17.79;100.00
8627;BME280;4351;51.422;6.794;2023-07-31T12:10:23;101294.56;;;17.81;100.00
8627;BME280;4351;51.422;6.794;2023-07-31T12:13:02;101270.59;;;17.85;100.00
8627;BME280;4351;51.422;6.794;2023-07-31T12:15:36;101234.25;;;17.84;100.00
8627;BME280;4351;51.422;6.794;2023-07-31T12:18:06;101127.84;;;17.84;100.00
8627;BME280;4351;51.422;6.794;2023-07-31T12:20:34;101106.41;;;17.79;100.00
8627;BME280;4351;51.422;6.794;2023-07-31T12:23:02;101116.91;;;17.84;100.00
8627;BME280;4351;51.422;6.794;2023-07-31T12:25:31;101164.31;;;17.83;100.00
8627;BME280;4351;51.422;6.794;2023-07-31T12:28:07;101127.28;;;17.90;100.00
8627;BME280;4351;51.422;6.794;2023-07-31T12:30:40;101120.47;;;17.96;100.00
8627;BME280;4351;51.422;6.794;2023-07-31T12:33:13;101152.69;;;18.02;100.00
8627;BME280;4351;51.422;6.794;2023-07-31T12:35:44;101183.63;;;18.13;100.00
8627;BME280;4351;51.422;6.794;2023-07-31T12:38:12;101086.31;;;18.23;100.00
8627;BME280;4351;51.422;6.794;2023-07-31T12:40:41;101058.41;;;18.20;100.00
8627;BME280;4351;51.422;6.794;2023-07-31T12:43:09;101014.47;;;18.23;100.00
8627;BME280;4351;51.422;6.794;2023-07-31T12:45:37;100995.28;;;18.13;100.00
8627;BME280;4351;51.422;6.794;2023-07-31T12:48:06;100988.53;;;18.48;100.00
8627;BME280;4351;51.422;6.794;2023-07-31T12:50:34;100852.28;;;18.35;100.00
8627;BME280;4351;51.422;6.794;2023-07-31T12:53:03;100767.19;;;18.30;100.00
8627;BME280;4351;51.422;6.794;2023-07-31T12:55:31;100735.56;;;18.27;100.00
8627;BME280;4351;51.422;6.794;2023-07-31T12:58:01;100709.28;;;18.26;100.00
8627;BME280;4351;51.422;6.794;2023-07-31T13:00:28;100679.13;;;18.18;100.00
8627;BME280;4351;51.422;6.794;2023-07-31T13:02:56;100702.50;;;18.11;100.00
8627;BME280;4351;51.422;6.794;2023-07-31T13:05:26;100748.19;;;18.38;100.00
8627;BME280;4351;51.422;6.794;2023-07-31T13:07:54;100710.16;;;18.27;100.00
8627;BME280;4351;51.422;6.794;2023-07-31T13:10:22;100731.84;;;18.19;100.00
8627;BME280;4351;51.422;6.794;2023-07-31T13:12:50;100724.22;;;18.22;100.00